Time;durP1;ratioP1;P1;durP2;ratioP2;P2;SDS_P1;SDS_P2;PMS_P1;PMS_P2;Temp;Humidity;BMP_temperature;BMP_pressure;BME280_temperature;BME280_humidity;BME280_pressure;Samples;Min_cycle;Max_cycle;Signal;HPM_P1;HPM_P2
2022/09/08 00:01:22;;;;;;;3.72;3.40;;;;;;;22.33;58.48;92969.28;4837583;29;20059;-87
2022/09/08 00:03:49;;;;;;;4.90;4.13;;;;;;;22.34;58.44;92968.75;4838859;29;20045;-87
2022/09/08 00:06:16;;;;;;;4.72;3.88;;;;;;;22.33;58.57;92964.53;4836939;29;20037;-88
2022/09/08 00:08:43;;;;;;;4.65;3.83;;;;;;;22.32;58.42;92962.31;4858307;29;20296;-89
2022/09/08 00:11:09;;;;;;;3.97;3.50;;;;;;;22.33;58.61;92961.03;4866645;29;20046;-87
2022/09/08 00:13:35;;;;;;;5.07;3.97;;;;;;;22.33;58.61;92967.28;4822887;29;20303;-90
2022/09/08 00:16:02;;;;;;;5.30;4.40;;;;;;;22.31;58.44;92967.09;4837540;29;20572;-89
2022/09/08 00:18:28;;;;;;;4.45;3.90;;;;;;;22.32;58.43;92965.06;4837034;29;20125;-88
2022/09/08 00:20:53;;;;;;;5.10;4.18;;;;;;;22.31;58.43;92967.09;4847176;29;20124;-88
2022/09/08 00:23:20;;;;;;;4.78;3.38;;;;;;;22.33;58.13;92959.00;4840877;29;20386;-88
2022/09/08 00:25:46;;;;;;;4.55;3.53;;;;;;;22.32;58.20;92954.78;4851662;29;20144;-88
2022/09/08 00:28:12;;;;;;;5.03;3.65;;;;;;;22.32;58.56;92945.78;4840265;29;20045;-87
2022/09/08 00:30:37;;;;;;;4.57;4.10;;;;;;;22.32;58.44;92948.53;4842107;29;20050;-87
2022/09/08 00:33:02;;;;;;;5.43;4.05;;;;;;;22.30;58.46;92948.38;4844264;29;20045;-87
2022/09/08 00:35:28;;;;;;;5.35;4.30;;;;;;;22.31;58.67;92947.81;4843620;29;20038;-88
2022/09/08 00:37:53;;;;;;;4.53;3.90;;;;;;;22.32;58.35;92940.28;4835439;29;20046;-88
2022/09/08 00:40:20;;;;;;;4.70;3.90;;;;;;;22.30;58.34;92934.63;4848798;29;20438;-89
2022/09/08 00:42:45;;;;;;;4.45;4.05;;;;;;;22.30;58.41;92942.88;4861706;29;20042;-87
2022/09/08 00:45:11;;;;;;;4.68;3.83;;;;;;;22.30;58.27;92938.06;4847123;29;20482;-88
2022/09/08 00:47:42;;;;;;;4.40;3.80;;;;;;;22.31;58.13;92945.06;4851154;29;20050;-87
2022/09/08 00:50:21;;;;;;;;;;;;;;;22.30;58.32;92935.31;4862160;29;20128;-87
2022/09/08 00:52:52;;;;;;;5.43;3.67;;;;;;;22.30;58.21;92940.84;4872992;29;20281;-89
2022/09/08 00:55:18;;;;;;;3.97;3.58;;;;;;;22.31;58.27;92944.31;4851657;29;20048;-88
2022/09/08 00:57:44;;;;;;;4.40;3.53;;;;;;;22.28;58.34;92937.91;4822687;29;20049;-88
2022/09/08 01:00:11;;;;;;;4.63;3.45;;;;;;;22.29;58.42;92933.13;4838722;29;20033;-89
2022/09/08 01:02:36;;;;;;;4.38;3.53;;;;;;;22.29;58.29;92924.88;4861763;29;20118;-89
2022/09/08 01:05:08;;;;;;;4.32;3.88;;;;;;;22.28;58.31;92921.41;4854138;29;20042;-87
2022/09/08 01:13:12;;;;;;;5.07;3.60;;;;;;;22.29;58.24;92916.63;4872337;29;20129;-87
2022/09/08 01:15:39;;;;;;;4.78;4.15;;;;;;;22.28;58.38;92909.63;4857924;29;20052;-87
2022/09/08 01:18:04;;;;;;;4.22;3.47;;;;;;;22.28;58.17;92901.38;4844437;29;20149;-88
2022/09/08 01:20:39;;;;;;;3.90;2.90;;;;;;;22.29;58.29;92911.84;4859627;29;20105;-88
2022/09/08 01:23:04;;;;;;;4.35;3.30;;;;;;;22.29;58.12;92916.63;4834950;29;20050;-88
2022/09/08 01:25:32;;;;;;;4.90;3.75;;;;;;;22.28;58.32;92915.88;4859951;29;20089;-87
2022/09/08 01:28:19;;;;;;;3.92;3.25;;;;;;;22.27;58.31;92910.91;4873165;29;20075;-88
2022/09/08 01:30:46;;;;;;;4.65;3.40;;;;;;;22.28;58.29;92910.38;4872509;29;20097;-88
2022/09/08 01:33:12;;;;;;;4.63;3.33;;;;;;;22.28;58.27;92901.38;4867898;29;20049;-88
2022/09/08 01:35:38;;;;;;;4.20;3.53;;;;;;;22.27;58.35;92905.41;4855088;29;20403;-87
2022/09/08 01:38:04;;;;;;;4.30;3.28;;;;;;;22.28;58.31;92899.38;4839385;29;20049;-89
2022/09/08 01:40:30;;;;;;;4.47;3.33;;;;;;;22.27;58.19;92886.88;4855120;29;20049;-87
2022/09/08 01:42:55;;;;;;;4.35;3.42;;;;;;;22.27;58.15;92891.66;4855461;29;20076;-88
2022/09/08 01:45:21;;;;;;;4.88;3.05;;;;;;;22.26;58.37;92893.66;4830576;29;20057;-91
2022/09/08 01:47:46;;;;;;;3.97;3.40;;;;;;;22.29;58.56;92891.84;4818402;29;20582;-87
2022/09/08 01:50:12;;;;;;;3.63;3.20;;;;;;;22.26;58.29;92885.41;4837108;29;20101;-88
2022/09/08 01:52:37;;;;;;;3.80;2.97;;;;;;;22.27;58.04;92883.38;4840258;29;20113;-89
2022/09/08 01:55:03;;;;;;;3.42;3.00;;;;;;;22.27;58.28;92875.88;4850780;29;20403;-87
2022/09/08 01:57:28;;;;;;;3.58;2.78;;;;;;;22.28;58.02;92877.34;4832527;29;20124;-87
2022/09/08 01:59:54;;;;;;;3.25;2.90;;;;;;;22.27;58.09;92878.63;4837298;29;20049;-88
2022/09/08 02:02:19;;;;;;;3.60;2.95;;;;;;;22.27;58.23;92881.38;4839210;29;20533;-88
2022/09/08 02:04:45;;;;;;;4.40;2.88;;;;;;;22.26;58.37;92871.63;4865706;29;20038;-88
2022/09/08 02:07:10;;;;;;;3.40;3.03;;;;;;;22.26;58.09;92866.13;4853579;29;20515;-87
2022/09/08 02:09:36;;;;;;;4.35;3.03;;;;;;;22.28;58.02;92873.84;4847086;29;20532;-87
2022/09/08 02:12:02;;;;;;;3.35;3.05;;;;;;;22.27;58.19;92881.38;4860172;29;20045;-88
2022/09/08 02:14:28;;;;;;;3.40;2.80;;;;;;;22.28;58.14;92873.84;4843755;29;20042;-88
2022/09/08 02:16:53;;;;;;;3.75;3.08;;;;;;;22.26;58.14;92870.91;4834760;29;20046;-88
2022/09/08 02:19:19;;;;;;;3.72;2.60;;;;;;;22.25;58.02;92859.16;4836334;29;20042;-87
2022/09/08 02:21:44;;;;;;;4.68;3.40;;;;;;;22.26;58.14;92851.63;4825443;29;20110;-87
2022/09/08 02:24:09;;;;;;;2.58;2.33;;;;;;;22.26;57.84;92863.38;4835584;29;20078;-87
2022/09/08 02:26:39;;;;;;;2.85;2.53;;;;;;;22.26;57.88;92862.66;4836562;29;20046;-88
2022/09/08 02:29:08;;;;;;;3.70;3.20;;;;;;;22.27;57.97;92866.88;4835919;29;20049;-91
2022/09/08 02:31:33;;;;;;;2.97;2.50;;;;;;;22.26;57.77;92863.38;4837115;29;20061;-89
2022/09/08 02:33:59;;;;;;;3.97;3.03;;;;;;;22.26;58.21;92865.41;4821112;29;20058;-89
2022/09/08 02:36:25;;;;;;;3.97;3.05;;;;;;;22.25;58.10;92864.66;4836691;29;20042;-87
2022/09/08 02:38:52;;;;;;;2.70;2.50;;;;;;;22.26;57.83;92862.66;4820799;29;20041;-90
2022/09/08 02:41:18;;;;;;;3.33;2.72;;;;;;;22.25;57.84;92856.41;4853591;29;20046;-88
2022/09/08 02:43:43;;;;;;;3.13;2.70;;;;;;;22.25;58.10;92850.91;4855049;29;20068;-90
2022/09/08 02:46:09;;;;;;;3.78;2.65;;;;;;;22.25;58.36;92850.91;4816886;29;20525;-88
2022/09/08 02:48:34;;;;;;;2.67;2.42;;;;;;;22.25;58.08;92850.91;4788049;29;20474;-87
2022/09/08 02:51:00;;;;;;;3.03;2.53;;;;;;;22.25;58.08;92845.38;4802719;29;20055;-88
2022/09/08 02:53:27;;;;;;;3.88;2.50;;;;;;;22.26;57.93;92838.59;4814029;29;20047;-87
2022/09/08 02:55:53;;;;;;;3.83;2.63;;;;;;;22.25;58.12;92834.38;4843368;29;20606;-88
2022/09/08 02:58:18;;;;;;;2.40;2.15;;;;;;;22.23;58.09;92832.16;4797586;29;20046;-91
2022/09/08 03:00:44;;;;;;;3.05;2.60;;;;;;;22.25;57.98;92836.41;4820477;29;20553;-87
2022/09/08 03:03:09;;;;;;;3.65;2.65;;;;;;;22.24;57.96;92838.41;4820803;29;20049;-90
2022/09/08 03:05:38;;;;;;;3.60;3.00;;;;;;;22.24;58.06;92846.66;4820997;29;20532;-88
2022/09/08 03:08:03;;;;;;;3.20;2.50;;;;;;;22.26;57.96;92837.88;4793303;29;20067;-87
2022/09/08 03:10:32;;;;;;;3.20;2.78;;;;;;;22.25;58.38;92839.16;4809497;29;20048;-87
2022/09/08 03:12:58;;;;;;;4.57;2.78;;;;;;;22.24;57.60;92832.91;4800757;29;20045;-88
2022/09/08 03:15:24;;;;;;;3.25;2.80;;;;;;;22.26;57.86;92827.59;4796713;29;20585;-88
2022/09/08 03:17:50;;;;;;;2.83;2.50;;;;;;;22.26;57.90;92826.84;4852962;29;20053;-87
2022/09/08 03:20:15;;;;;;;3.67;2.22;;;;;;;22.22;58.06;92825.19;4836582;29;20038;-87
2022/09/08 03:22:41;;;;;;;3.65;2.50;;;;;;;22.23;57.98;92823.19;4844133;29;20052;-87
2022/09/08 03:25:06;;;;;;;3.50;2.72;;;;;;;22.23;57.92;92834.94;4824182;29;20046;-88
2022/09/08 03:27:32;;;;;;;2.95;2.55;;;;;;;22.23;58.16;92829.41;4831396;29;20077;-88
2022/09/08 03:29:57;;;;;;;2.88;2.58;;;;;;;22.23;57.88;92832.16;4821219;29;20280;-89
2022/09/08 03:32:23;;;;;;;3.42;2.58;;;;;;;22.22;58.04;92829.97;4867960;29;20081;-87
2022/09/08 03:34:48;;;;;;;3.08;2.63;;;;;;;22.23;57.80;92826.66;4826031;29;20494;-87
2022/09/08 03:37:14;;;;;;;2.75;2.35;;;;;;;22.24;57.94;92835.66;4825453;29;20280;-87
2022/09/08 03:39:41;;;;;;;2.90;2.40;;;;;;;22.24;57.85;92838.41;4834328;29;20042;-89
2022/09/08 03:42:07;;;;;;;2.70;2.30;;;;;;;22.25;57.80;92845.38;4818705;29;20042;-89
2022/09/08 03:44:33;;;;;;;3.28;2.60;;;;;;;22.23;57.69;92831.44;4819034;29;20549;-89
2022/09/08 03:46:58;;;;;;;6.20;2.53;;;;;;;22.26;57.59;92822.06;4837642;29;20084;-88
2022/09/08 03:49:24;;;;;;;15.98;3.70;;;;;;;22.22;57.78;92825.19;4835382;29;20054;-91
2022/09/08 03:51:49;;;;;;;17.23;3.58;;;;;;;22.25;57.55;92825.38;4822592;29;20042;-88
2022/09/08 03:56:59;;;;;;;8.32;3.42;;;;;;;22.23;57.39;92820.41;4819971;29;20054;-88
2022/09/08 03:59:25;;;;;;;7.43;3.15;;;;;;;22.21;56.37;92812.72;4824547;29;20054;-90
2022/09/08 04:01:53;;;;;;;17.10;3.70;;;;;;;22.16;55.31;92807.38;4820131;29;20042;-87
2022/09/08 04:04:18;;;;;;;17.25;3.20;;;;;;;22.14;55.02;92807.19;4803774;29;20046;-88
2022/09/08 04:06:43;;;;;;;10.60;3.72;;;;;;;22.13;54.90;92808.47;4815879;29;20034;-91
2022/09/08 04:09:10;;;;;;;11.35;4.00;;;;;;;22.11;54.70;92808.28;4842816;29;20040;-87
2022/09/08 04:11:37;;;;;;;6.05;4.13;;;;;;;22.11;54.82;92806.28;4858402;29;20053;-87
2022/09/08 04:14:02;;;;;;;12.02;4.22;;;;;;;22.14;54.71;92801.69;4856131;29;20066;-89
2022/09/08 04:16:28;;;;;;;14.35;4.22;;;;;;;22.12;55.13;92804.97;4865711;29;20265;-87
2022/09/08 04:18:53;;;;;;;11.00;4.95;;;;;;;22.14;55.01;92790.69;4827767;29;20038;-90
2022/09/08 04:21:19;;;;;;;8.65;4.13;;;;;;;22.14;54.85;92791.41;4823765;29;20054;-90
2022/09/08 04:23:44;;;;;;;12.00;4.40;;;;;;;22.17;54.83;92778.56;4832682;29;20048;-88
2022/09/08 04:26:11;;;;;;;7.93;4.40;;;;;;;22.15;55.14;92784.63;4861761;29;20043;-87
2022/09/08 04:28:37;;;;;;;8.88;4.22;;;;;;;22.15;55.42;92783.88;4877832;29;20036;-87
2022/09/08 04:31:11;;;;;;;11.40;5.20;;;;;;;22.18;55.14;92786.28;4842010;29;20124;-87
2022/09/08 04:33:37;;;;;;;11.00;4.03;;;;;;;22.19;55.92;92776.72;4857874;29;20048;-91
2022/09/08 04:36:10;;;;;;;12.55;4.20;;;;;;;22.18;55.88;92775.25;4854338;29;20073;-86
2022/09/08 04:38:35;;;;;;;15.07;4.47;;;;;;;22.19;56.37;92779.50;4847913;29;20040;-86
2022/09/08 04:41:07;;;;;;;7.50;4.93;;;;;;;22.23;56.44;92782.63;4857219;29;20349;-90
2022/09/08 04:43:35;;;;;;;62.38;30.05;;;;;;;22.26;56.34;92788.31;4844546;29;20856;-85
2022/09/08 04:46:13;;;;;;;12.15;6.38;;;;;;;22.27;56.80;92807.03;4837866;29;20049;-88
2022/09/08 04:48:45;;;;;;;15.20;7.25;;;;;;;22.28;56.60;92807.75;4871450;29;20052;-86
2022/09/08 04:51:12;;;;;;;9.18;5.82;;;;;;;22.30;56.50;92792.13;4791638;29;20047;-87
2022/09/08 04:53:38;;;;;;;13.07;4.82;;;;;;;22.24;55.33;92797.13;4776625;29;20067;-88
2022/09/08 04:56:05;;;;;;;9.43;5.05;;;;;;;22.23;54.66;92806.66;4814880;29;20461;-89
2022/09/08 04:58:32;;;;;;;14.52;6.00;;;;;;;22.17;54.35;92806.09;4812874;29;20098;-89
2022/09/08 05:01:08;;;;;;;26.38;6.03;;;;;;;22.16;54.12;92805.34;4823313;29;20038;-89
2022/09/08 05:03:34;;;;;;;18.20;6.30;;;;;;;22.14;54.16;92816.19;4822853;29;20580;-90
2022/09/08 05:06:09;;;;;;;17.02;6.10;;;;;;;22.17;54.07;92811.59;4814018;29;20090;-85
2022/09/08 05:08:35;;;;;;;14.70;4.93;;;;;;;22.12;53.83;92809.75;4823729;29;20061;-91
2022/09/08 05:11:00;;;;;;;9.85;4.95;;;;;;;22.12;53.83;92815.25;4815819;29;20035;-88
2022/09/08 05:13:26;;;;;;;9.48;4.85;;;;;;;22.11;53.79;92809.03;4785192;29;20092;-87
2022/09/08 05:15:52;;;;;;;10.57;6.97;;;;;;;22.12;53.54;92813.25;4785459;29;20506;-88
2022/09/08 05:18:17;;;;;;;22.15;10.45;;;;;;;22.13;53.76;92803.69;4795108;29;20129;-86
2022/09/08 05:20:43;;;;;;;17.08;6.97;;;;;;;22.11;53.84;92811.78;4817928;29;20050;-88
2022/09/08 05:23:09;;;;;;;12.07;6.20;;;;;;;22.06;53.90;92796.19;4817196;29;20084;-87
2022/09/08 05:25:35;;;;;;;18.77;8.38;;;;;;;22.10;54.35;92801.31;4804275;29;20049;-87
2022/09/08 05:28:01;;;;;;;11.95;5.60;;;;;;;22.09;54.14;92797.81;4777698;29;20081;-88
2022/09/08 05:30:26;;;;;;;27.38;11.77;;;;;;;22.06;54.36;92793.44;4822916;29;20054;-88
2022/09/08 05:32:52;;;;;;;17.95;7.55;;;;;;;22.05;54.75;92794.72;4802782;29;20045;-89
2022/09/08 05:35:17;;;;;;;51.00;12.15;;;;;;;22.04;55.38;92798.75;4816999;29;20069;-88
2022/09/08 05:37:42;;;;;;;23.25;10.32;;;;;;;22.03;54.78;92800.03;4821728;29;20050;-88
2022/09/08 05:40:08;;;;;;;17.73;10.93;;;;;;;21.96;54.54;92802.75;4803655;29;20072;-89
2022/09/08 05:42:34;;;;;;;21.92;10.23;;;;;;;21.89;55.29;92801.44;4817122;29;20046;-86
2022/09/08 05:44:59;;;;;;;24.60;13.57;;;;;;;21.96;54.94;92816.50;4797999;29;20052;-86
2022/09/08 05:47:25;;;;;;;35.75;16.58;;;;;;;21.94;55.08;92819.81;4824998;29;20060;-85
2022/09/08 05:49:51;;;;;;;38.42;19.92;;;;;;;21.90;55.09;92806.41;4809418;29;20039;-88
2022/09/08 05:52:16;;;;;;;35.22;17.65;;;;;;;21.83;55.39;92811.91;4810014;29;20050;-88
2022/09/08 05:54:42;;;;;;;25.15;14.98;;;;;;;21.80;55.49;92824.00;4815736;29;20068;-88
2022/09/08 05:57:07;;;;;;;20.13;12.55;;;;;;;21.83;56.11;92820.16;4823377;29;20045;-87
2022/09/08 05:59:33;;;;;;;27.08;12.10;;;;;;;21.80;56.29;92818.50;4816429;29;20046;-85
2022/09/08 06:01:59;;;;;;;18.48;10.32;;;;;;;21.74;56.31;92821.41;4806972;29;20046;-90
2022/09/08 06:04:24;;;;;;;19.63;7.90;;;;;;;21.70;56.00;92820.31;4804312;29;20042;-87
2022/09/08 06:06:50;;;;;;;13.98;7.50;;;;;;;21.74;56.42;92815.91;4835781;29;20054;-86
2022/09/08 06:09:16;;;;;;;16.45;6.30;;;;;;;21.77;56.51;92820.34;4809235;29;20038;-90
2022/09/08 06:11:42;;;;;;;12.15;7.90;;;;;;;21.77;56.26;92822.34;4812648;29;20075;-87
2022/09/08 06:14:08;;;;;;;12.60;6.60;;;;;;;21.82;56.24;92826.94;4790229;29;20050;-87
2022/09/08 06:16:33;;;;;;;11.18;7.03;;;;;;;21.86;55.80;92817.06;4816938;29;20038;-88
2022/09/08 06:18:59;;;;;;;11.75;7.05;;;;;;;21.86;55.71;92822.56;4809743;29;20034;-86
2022/09/08 06:21:28;;;;;;;7.47;6.05;;;;;;;21.93;55.35;92812.09;4807584;29;20560;-89
2022/09/08 06:23:55;;;;;;;8.93;5.55;;;;;;;21.90;55.46;92817.41;4808874;29;21010;-87
2022/09/08 06:26:26;;;;;;;11.43;6.82;;;;;;;21.93;55.47;92823.84;4823780;29;20065;-88
2022/09/08 06:28:58;;;;;;;19.73;9.73;;;;;;;21.86;55.69;92824.59;4839095;29;20557;-84
2022/09/08 06:31:30;;;;;;;168.70;35.13;;;;;;;21.90;55.80;92825.66;4857358;29;20049;-83
2022/09/08 06:33:58;;;;;;;56.15;21.60;;;;;;;21.90;55.75;92824.94;4791855;29;20154;-84
2022/09/08 06:36:27;;;;;;;83.50;29.63;;;;;;;21.85;55.61;92821.09;4819543;29;20617;-88
2022/09/08 06:39:05;;;;;;;104.47;42.08;;;;;;;21.88;55.80;92811.72;4826262;29;20052;-87
2022/09/08 06:41:42;;;;;;;163.77;73.05;;;;;;;21.89;55.34;92810.44;4837099;29;20068;-88
2022/09/08 06:44:21;;;;;;;149.55;72.18;;;;;;;21.84;55.74;92814.13;4846202;29;20045;-88
2022/09/08 06:46:47;;;;;;;138.82;68.32;;;;;;;21.87;55.62;92821.25;4844965;29;20084;-88
2022/09/08 06:49:13;;;;;;;178.93;88.75;;;;;;;21.93;55.60;92817.59;4832192;29;20056;-84
2022/09/08 06:52:10;;;;;;;162.23;80.18;;;;;;;21.90;55.79;92811.91;4857540;29;20057;-84
2022/09/08 06:54:47;;;;;;;182.45;92.45;;;;;;;21.89;55.63;92802.19;4839686;29;20069;-86
2022/09/08 06:57:43;;;;;;;144.68;73.15;;;;;;;21.87;55.69;92829.50;4848749;29;20046;-86
2022/09/08 07:00:27;;;;;;;130.73;70.47;;;;;;;21.91;55.74;92834.66;4832577;29;20052;-86
2022/09/08 07:03:13;;;;;;;143.38;78.35;;;;;;;21.85;56.02;92832.09;4814374;29;20034;-89
2022/09/08 07:05:44;;;;;;;174.20;84.72;;;;;;;21.86;56.06;92824.59;4843257;29;20050;-88
2022/09/08 07:08:30;;;;;;;104.60;56.78;;;;;;;21.83;56.04;92829.16;4845512;29;20569;-92
2022/09/08 07:10:58;;;;;;;89.45;46.08;;;;;;;21.83;56.41;92825.66;4863311;29;20052;-88
2022/09/08 07:13:26;;;;;;;71.38;36.00;;;;;;;21.82;56.38;92826.94;4840605;29;20042;-87
2022/09/08 07:16:09;;;;;;;62.72;32.40;;;;;;;21.77;56.29;92827.84;4845710;29;20037;-87
2022/09/08 07:18:44;;;;;;;40.17;21.35;;;;;;;21.75;57.08;92839.41;4872148;29;20777;-84
2022/09/08 07:21:33;;;;;;;48.20;20.27;;;;;;;21.74;57.30;92854.44;4850447;29;20038;-87
2022/09/08 07:23:59;;;;;;;29.42;16.75;;;;;;;21.74;57.46;92845.44;4853512;29;20552;-88
2022/09/08 07:26:38;;;;;;;41.95;16.40;;;;;;;21.70;57.57;92854.06;4863450;29;20114;-87
2022/09/08 07:29:11;;;;;;;42.85;17.73;;;;;;;21.70;58.13;92867.06;4823359;29;20094;-89
2022/09/08 07:31:40;;;;;;;59.80;18.38;;;;;;;21.58;58.62;92872.19;4835496;29;20577;-88
2022/09/08 07:34:09;;;;;;;33.85;13.80;;;;;;;21.55;59.16;92865.75;4831574;29;20073;-88
2022/09/08 07:37:01;;;;;;;27.27;12.15;;;;;;;21.62;58.81;92872.56;4829545;29;20654;-88
2022/09/08 07:39:33;;;;;;;23.02;10.48;;;;;;;21.61;59.30;92882.09;4844553;29;20048;-87
2022/09/08 07:42:02;;;;;;;19.48;9.65;;;;;;;21.55;59.73;92882.25;4841577;29;20092;-88
2022/09/08 07:44:27;;;;;;;25.55;10.32;;;;;;;21.54;59.68;92886.28;4854480;29;20536;-86
2022/09/08 07:47:17;;;;;;;28.88;12.65;;;;;;;21.59;59.58;92906.66;4857196;29;20052;-84
2022/09/08 07:49:52;;;;;;;19.40;11.70;;;;;;;21.53;59.95;92909.56;4838109;29;20045;-86
2022/09/08 07:52:42;;;;;;;41.97;16.38;;;;;;;21.48;59.98;92909.72;4820422;29;20529;-87
2022/09/08 07:55:20;;;;;;;29.17;14.07;;;;;;;21.46;60.41;92921.25;4868551;29;20060;-91
2022/09/08 07:57:50;;;;;;;28.13;16.77;;;;;;;21.37;60.67;92930.03;4836082;29;20053;-88
2022/09/08 08:00:19;;;;;;;66.85;38.95;;;;;;;21.41;60.29;92924.91;4856334;29;20073;-86
2022/09/08 08:02:56;;;;;;;55.85;33.83;;;;;;;21.41;60.49;92935.91;4838269;29;20037;-90
2022/09/08 08:05:31;;;;;;;110.43;59.42;;;;;;;21.44;60.67;92929.31;4854495;29;20053;-85
2022/09/08 08:08:03;;;;;;;93.70;47.63;;;;;;;21.38;60.66;92928.00;4840249;29;20110;-85
2022/09/08 08:10:43;;;;;;;82.70;42.20;;;;;;;21.40;60.82;92945.44;4855982;29;20543;-87
2022/09/08 08:13:31;;;;;;;65.43;37.38;;;;;;;21.41;61.23;92935.19;4840860;29;20513;-86
2022/09/08 08:16:08;;;;;;;77.55;41.20;;;;;;;21.34;61.77;92944.13;4845775;29;20049;-87
2022/09/08 08:18:53;;;;;;;59.25;32.63;;;;;;;21.35;62.03;92945.59;4833821;29;20069;-88
2022/09/08 08:21:23;;;;;;;45.83;23.00;;;;;;;21.28;62.39;92943.53;4872496;29;20049;-86
2022/09/08 08:23:55;;;;;;;41.43;22.70;;;;;;;21.22;62.57;92935.41;4842912;29;20050;-88
2022/09/08 08:26:22;;;;;;;33.72;19.98;;;;;;;21.15;63.16;92941.59;4876070;29;20524;-88
2022/09/08 08:28:48;;;;;;;28.27;16.30;;;;;;;21.19;62.97;92948.22;4872823;29;20081;-88
2022/09/08 08:31:36;;;;;;;18.95;14.60;;;;;;;21.17;63.13;92950.78;4852476;29;20050;-85
2022/09/08 08:34:10;;;;;;;26.90;16.73;;;;;;;21.10;63.58;92948.69;4859941;29;20054;-85
2022/09/08 08:36:39;;;;;;;30.05;19.70;;;;;;;21.15;63.48;92956.06;4838548;29;20053;-87
2022/09/08 08:39:18;;;;;;;32.30;22.02;;;;;;;21.03;64.16;92945.88;4834854;29;20079;-85
2022/09/08 08:41:49;;;;;;;45.10;28.70;;;;;;;20.93;64.71;92962.16;4861803;29;20065;-89
2022/09/08 08:44:18;;;;;;;34.40;23.63;;;;;;;20.97;64.60;92961.81;4822657;29;20129;-85
2022/09/08 08:47:21;;;;;;;26.70;18.95;;;;;;;20.80;65.37;92957.44;4845710;29;20546;-85
2022/09/08 08:50:01;;;;;;;23.42;17.00;;;;;;;20.77;65.68;92963.31;4847135;29;20057;-87
2022/09/08 08:52:42;;;;;;;19.45;15.02;;;;;;;20.78;65.66;92964.78;4863867;29;20044;-86
2022/09/08 08:55:29;;;;;;;20.30;14.95;;;;;;;20.67;66.25;92963.03;4841916;29;20098;-89
2022/09/08 08:58:13;;;;;;;21.67;15.73;;;;;;;20.63;66.38;92970.13;4854429;29;20057;-88
2022/09/08 09:00:58;;;;;;;26.08;15.18;;;;;;;20.50;66.58;92973.69;4856682;29;20089;-85
2022/09/08 09:03:45;;;;;;;25.17;15.27;;;;;;;20.47;66.55;92978.22;4860446;29;20044;-89
2022/09/08 09:06:31;;;;;;;34.85;13.68;;;;;;;20.37;66.20;92987.44;4858514;29;20041;-85
2022/09/08 09:09:02;;;;;;;34.83;13.75;;;;;;;20.39;66.36;92984.91;4858747;29;20053;-87
2022/09/08 09:11:49;;;;;;;17.38;11.90;;;;;;;20.45;65.60;92980.78;4873219;29;20045;-87
2022/09/08 09:14:34;;;;;;;29.65;14.55;;;;;;;20.51;65.20;92973.16;4829478;29;20072;-86
2022/09/08 09:17:22;;;;;;;30.00;13.43;;;;;;;20.63;64.67;92979.09;4861727;29;20619;-92
2022/09/08 09:20:22;;;;;;;47.08;18.08;;;;;;;20.61;64.11;92983.66;4854395;29;20517;-89
2022/09/08 09:22:55;;;;;;;40.03;11.10;;;;;;;20.62;63.62;92987.88;4869693;29;20041;-90
2022/09/08 09:25:34;;;;;;;19.67;7.72;;;;;;;20.68;63.08;92991.97;4859955;29;20045;-90
2022/09/08 09:28:28;;;;;;;25.67;13.07;;;;;;;20.75;62.90;92996.06;4827235;29;20101;-88
2022/09/08 09:31:32;;;;;;;22.63;12.20;;;;;;;20.77;62.65;92968.78;4851059;29;20046;-87
2022/09/08 09:34:06;;;;;;;36.00;10.48;;;;;;;20.82;62.06;92973.41;4854078;29;20069;-88
2022/09/08 09:36:53;;;;;;;19.02;9.55;;;;;;;20.84;61.58;92963.34;4855552;29;20061;-87
2022/09/08 09:39:49;;;;;;;22.63;10.45;;;;;;;20.86;61.57;92979.28;4868578;29;20041;-86
2022/09/08 09:42:34;;;;;;;19.52;9.32;;;;;;;20.88;61.35;92969.25;4841221;29;20069;-85
2022/09/08 09:45:31;;;;;;;21.77;9.35;;;;;;;20.93;60.90;92973.13;4855980;29;20057;-86
2022/09/08 09:48:19;;;;;;;26.25;9.27;;;;;;;20.99;60.23;92976.47;4854150;29;20046;-87
2022/09/08 09:51:07;;;;;;;13.38;6.18;;;;;;;20.95;60.04;92984.31;4855864;29;20052;-90
2022/09/08 09:54:00;;;;;;;11.05;5.47;;;;;;;20.97;59.80;92997.53;4844879;29;20555;-87
2022/09/08 09:56:44;;;;;;;11.95;4.10;;;;;;;21.01;59.50;93000.66;4855249;29;20053;-86
2022/09/08 09:59:31;;;;;;;8.98;4.53;;;;;;;21.03;59.24;93004.34;4847635;29;20520;-88
2022/09/08 10:02:26;;;;;;;13.27;4.65;;;;;;;21.00;58.85;93010.19;4858389;29;20060;-91
2022/09/08 10:05:08;;;;;;;5.53;3.10;;;;;;;20.97;58.15;93020.25;4874339;29;20120;-90
2022/09/08 10:08:01;;;;;;;10.80;2.58;;;;;;;20.97;58.18;93020.25;4857939;29;20068;-90
2022/09/08 10:10:48;;;;;;;8.15;2.65;;;;;;;20.94;57.78;93029.56;4889155;29;20501;-90
2022/09/08 10:13:31;;;;;;;15.20;3.03;;;;;;;21.02;57.80;93027.59;4847244;29;20401;-90
2022/09/08 10:16:16;;;;;;;5.72;1.98;;;;;;;20.97;57.72;93025.00;4854789;29;20108;-88
2022/09/08 10:18:45;;;;;;;7.43;2.25;;;;;;;20.91;57.78;93027.16;4867051;29;20061;-89
2022/09/08 10:21:31;;;;;;;6.23;1.97;;;;;;;21.01;57.81;93033.63;4888689;29;20504;-90
2022/09/08 10:24:23;;;;;;;5.93;2.28;;;;;;;21.02;57.85;93035.84;4877173;29;20048;-90
2022/09/08 10:26:55;;;;;;;2.55;1.70;;;;;;;21.01;57.73;93048.09;4842945;29;20045;-93
2022/09/08 10:29:36;;;;;;;10.10;2.38;;;;;;;21.04;57.94;93047.03;4858271;29;20049;-91
2022/09/08 10:32:16;;;;;;;6.78;2.15;;;;;;;21.09;57.76;93054.41;4872243;29;20059;-91
2022/09/08 10:34:52;;;;;;;4.93;2.05;;;;;;;21.13;57.60;93052.06;4857043;29;20086;-89
2022/09/08 10:37:43;;;;;;;3.78;2.65;;;;;;;21.14;57.79;93039.81;4839440;29;20081;-88
2022/09/08 10:40:12;;;;;;;;;;;;;;;21.17;57.62;93055.22;4876535;29;20041;-90
2022/09/08 10:42:46;;;;;;;5.80;1.95;;;;;;;21.19;57.49;93065.69;4889487;29;19924;-91
2022/09/08 10:45:24;;;;;;;5.43;2.05;;;;;;;21.20;57.50;93064.44;4843140;29;20046;-89
2022/09/08 10:48:12;;;;;;;4.85;2.42;;;;;;;21.19;57.51;93062.94;4859159;29;20049;-89
2022/09/08 10:51:10;;;;;;;8.93;2.20;;;;;;;21.24;57.46;93073.06;4838613;29;20038;-89
2022/09/08 10:54:01;;;;;;;5.70;2.10;;;;;;;21.21;57.42;93071.41;4851478;29;20048;-91
2022/09/08 10:56:27;;;;;;;5.30;2.47;;;;;;;21.20;57.30;93070.69;4876102;29;20283;-88
2022/09/08 10:59:11;;;;;;;5.38;2.22;;;;;;;;;;4865916;29;20045;-89
2022/09/08 11:01:46;;;;;;;21.45;6.72;;;;;;;21.23;57.33;93068.84;4875546;29;20120;-88
2022/09/08 11:04:41;;;;;;;13.68;5.82;;;;;;;21.29;57.41;93063.94;4890345;29;20457;-90
2022/09/08 11:07:32;;;;;;;75.78;34.55;;;;;;;21.27;57.19;93074.75;4835828;29;20075;-90
2022/09/08 11:10:15;;;;;;;191.02;53.78;;;;;;;21.29;58.02;93063.22;4822109;29;20087;-89
2022/09/08 11:13:18;;;;;;;225.95;99.97;;;;;;;21.29;57.60;93077.69;4807342;29;20119;-88
2022/09/08 11:16:07;;;;;;;257.05;106.55;;;;;;;21.35;57.92;93081.06;4785342;29;20071;-87
2022/09/08 11:18:43;;;;;;;213.40;109.88;;;;;;;21.34;57.92;93087.81;4799694;29;20557;-87
2022/09/08 11:21:12;;;;;;;217.88;108.05;;;;;;;21.37;57.48;93089.50;4788917;29;20054;-88
2022/09/08 11:23:52;;;;;;;168.35;87.10;;;;;;;21.38;58.06;93093.72;4804583;29;20141;-88
2022/09/08 11:26:24;;;;;;;194.85;101.97;;;;;;;21.39;57.54;93095.19;4804916;29;20530;-86
2022/09/08 11:29:11;;;;;;;426.45;243.95;;;;;;;21.40;58.06;93099.44;4819400;29;20043;-86
2022/09/08 11:32:01;;;;;;;295.27;172.57;;;;;;;21.41;57.86;93106.41;4822855;29;20054;-88
2022/09/08 11:34:42;;;;;;;264.05;133.65;;;;;;;21.41;57.97;93119.41;4806643;29;20052;-88
2022/09/08 11:37:21;;;;;;;298.67;158.52;;;;;;;21.42;58.19;93115.41;4815806;29;20054;-88
2022/09/08 11:40:06;;;;;;;332.27;189.05;;;;;;;21.41;57.86;93114.66;4800482;29;20054;-89
2022/09/08 11:42:56;;;;;;;341.08;188.32;;;;;;;21.42;58.10;93116.13;4803891;29;20133;-90
2022/09/08 11:45:51;;;;;;;323.27;183.45;;;;;;;21.45;58.74;93114.28;4838575;29;20481;-90
2022/09/08 11:48:38;;;;;;;314.13;173.52;;;;;;;21.47;58.18;93122.75;4848190;29;20048;-87
2022/09/08 11:51:06;;;;;;;298.30;171.00;;;;;;;21.45;58.01;93122.53;4856169;29;20053;-90
2022/09/08 11:53:43;;;;;;;256.67;145.23;;;;;;;21.45;58.27;93108.78;4858430;29;20412;-89
2022/09/08 11:56:24;;;;;;;287.27;166.95;;;;;;;21.47;58.19;93117.25;4872348;29;20116;-87
2022/09/08 11:59:09;;;;;;;242.68;140.40;;;;;;;21.48;58.65;93110.47;4844955;29;20042;-87